createdAt,value
2017-09-04T00:02:07.220Z,13.60
2017-09-04T00:04:34.702Z,13.60
2017-09-04T00:07:02.171Z,13.60
2017-09-04T00:09:29.713Z,13.60
2017-09-04T00:11:57.175Z,13.50
2017-09-04T00:14:24.643Z,13.50
2017-09-04T00:16:52.919Z,13.50
2017-09-04T00:19:21.179Z,13.40
2017-09-04T00:21:48.895Z,13.40
2017-09-04T00:24:16.391Z,13.50
2017-09-04T00:26:43.952Z,13.40
2017-09-04T00:29:12.443Z,13.40
2017-09-04T00:31:39.903Z,13.40
2017-09-04T00:34:08.211Z,13.40
2017-09-04T00:36:35.724Z,13.40
2017-09-04T00:39:03.184Z,13.50
2017-09-04T00:41:30.654Z,13.40
2017-09-04T00:43:58.126Z,13.40
2017-09-04T00:46:25.611Z,13.40
2017-09-04T00:48:53.112Z,13.40
2017-09-04T00:51:20.584Z,13.40
2017-09-04T00:53:48.835Z,13.40
2017-09-04T00:56:16.394Z,13.40
2017-09-04T00:58:43.959Z,13.30
2017-09-04T01:01:11.432Z,13.40
2017-09-04T01:03:39.661Z,13.30
2017-09-04T01:06:07.364Z,13.30
2017-09-04T01:08:34.814Z,13.20
2017-09-04T01:11:02.270Z,13.20
2017-09-04T01:13:29.751Z,13.20
2017-09-04T01:15:57.308Z,13.20
2017-09-04T01:18:24.838Z,13.20
2017-09-04T01:20:52.397Z,13.30
2017-09-04T01:23:19.994Z,13.20
2017-09-04T01:25:47.455Z,13.20
2017-09-04T01:28:14.927Z,13.20
2017-09-04T01:30:42.386Z,13.20
2017-09-04T01:33:09.886Z,13.20
2017-09-04T01:35:37.436Z,13.20
2017-09-04T01:38:04.989Z,13.20
2017-09-04T01:40:32.463Z,13.20
2017-09-04T01:43:00.012Z,13.20
2017-09-04T01:45:28.128Z,13.20
2017-09-04T01:47:55.651Z,13.20
2017-09-04T01:50:23.199Z,13.20
2017-09-04T01:52:51.176Z,13.20
2017-09-04T01:55:18.945Z,13.20
2017-09-04T01:57:46.423Z,13.20
2017-09-04T02:00:13.951Z,13.20
2017-09-04T02:02:41.516Z,13.10
2017-09-04T02:05:08.987Z,13.10
2017-09-04T02:07:36.446Z,13.00
2017-09-04T02:10:03.911Z,13.00
2017-09-04T02:12:31.395Z,12.90
2017-09-04T02:14:58.853Z,13.00
2017-09-04T02:17:26.320Z,12.90
2017-09-04T02:19:53.805Z,12.90
2017-09-04T02:22:21.376Z,12.90
2017-09-04T02:24:48.928Z,12.90
2017-09-04T02:27:16.487Z,12.90
2017-09-04T02:29:43.950Z,12.90
2017-09-04T02:32:11.411Z,12.90
2017-09-04T02:34:39.656Z,12.90
2017-09-04T02:37:07.358Z,12.80
2017-09-04T02:39:34.903Z,12.80
2017-09-04T02:42:02.457Z,12.80
2017-09-04T02:44:30.007Z,12.80
2017-09-04T02:46:57.473Z,12.80
2017-09-04T02:49:25.045Z,12.80
2017-09-04T02:51:52.494Z,12.90
2017-09-04T02:54:20.048Z,12.90
2017-09-04T02:56:48.342Z,12.90
2017-09-04T02:59:15.879Z,12.90
2017-09-04T03:01:43.436Z,12.90
2017-09-04T03:04:10.995Z,12.90
2017-09-04T03:06:38.550Z,12.90
2017-09-04T03:09:06.016Z,12.80
2017-09-04T03:11:33.494Z,12.80
2017-09-04T03:14:01.319Z,12.80
2017-09-04T03:16:28.879Z,12.70
2017-09-04T03:18:56.396Z,12.70
2017-09-04T03:21:23.855Z,12.70
2017-09-04T03:23:51.330Z,12.70
2017-09-04T03:26:18.795Z,12.70
2017-09-04T03:28:46.275Z,12.80
2017-09-04T03:31:13.831Z,12.70
2017-09-04T03:33:41.382Z,12.80
2017-09-04T03:36:08.947Z,12.80
2017-09-04T03:38:36.411Z,12.70
2017-09-04T03:41:03.958Z,12.70
2017-09-04T03:43:31.424Z,12.70
2017-09-04T03:45:58.885Z,12.70
2017-09-04T03:48:26.391Z,12.70
2017-09-04T03:50:53.863Z,12.80
2017-09-04T03:53:21.382Z,12.70
2017-09-04T03:55:48.856Z,12.80
2017-09-04T03:58:16.321Z,12.70
2017-09-04T04:00:43.820Z,12.70
2017-09-04T04:03:11.387Z,12.70
2017-09-04T04:05:38.935Z,12.70
2017-09-04T04:08:06.999Z,12.70
2017-09-04T04:10:34.483Z,12.70
2017-09-04T04:13:01.940Z,12.70
2017-09-04T04:15:29.424Z,12.70
2017-09-04T04:17:56.931Z,12.70
2017-09-04T04:20:24.497Z,12.70
2017-09-04T04:22:52.007Z,12.70
2017-09-04T04:25:19.491Z,12.70
2017-09-04T04:27:46.974Z,12.60
2017-09-04T04:30:14.438Z,12.50
2017-09-04T04:32:41.981Z,12.50
2017-09-04T04:35:09.470Z,12.50
2017-09-04T04:37:37.297Z,12.50
2017-09-04T04:40:04.801Z,12.60
2017-09-04T04:42:32.320Z,12.60
2017-09-04T04:44:59.778Z,12.50
2017-09-04T04:47:27.269Z,12.50
2017-09-04T04:49:54.727Z,12.50
2017-09-04T04:52:22.252Z,12.50
2017-09-04T04:54:50.527Z,12.50
2017-09-04T04:57:17.986Z,12.50
2017-09-04T04:59:46.248Z,12.50
2017-09-04T05:02:13.739Z,12.50
2017-09-04T05:04:41.190Z,12.40
2017-09-04T05:07:08.743Z,12.40
2017-09-04T05:09:36.239Z,12.40
2017-09-04T05:12:03.714Z,12.40
2017-09-04T05:14:31.171Z,12.30
2017-09-04T05:16:58.759Z,12.30
2017-09-04T05:19:26.244Z,12.30
2017-09-04T05:21:54.919Z,12.30
2017-09-04T05:24:22.565Z,12.40
2017-09-04T05:26:50.027Z,12.40
2017-09-04T05:29:17.491Z,12.40
2017-09-04T05:31:45.239Z,12.50
2017-09-04T05:34:12.755Z,12.50
2017-09-04T05:36:40.215Z,12.60
2017-09-04T05:39:07.703Z,12.70
2017-09-04T05:41:35.276Z,12.70
2017-09-04T05:44:02.846Z,12.70
2017-09-04T05:46:30.323Z,12.70
2017-09-04T05:48:57.791Z,12.80
2017-09-04T05:51:25.251Z,12.90
2017-09-04T05:53:52.732Z,12.90
2017-09-04T05:56:20.208Z,13.00
2017-09-04T05:58:47.783Z,13.10
2017-09-04T06:01:15.259Z,13.20
2017-09-04T06:03:42.728Z,13.30
2017-09-04T06:06:10.200Z,13.50
2017-09-04T06:08:37.700Z,13.60
2017-09-04T06:11:05.159Z,13.70
2017-09-04T06:13:32.618Z,13.80
2017-09-04T06:16:00.107Z,13.90
2017-09-04T06:18:28.188Z,14.00
2017-09-04T06:20:55.700Z,14.00
2017-09-04T06:23:23.939Z,14.30
2017-09-04T06:25:51.411Z,14.30
2017-09-04T06:28:18.872Z,14.40
2017-09-04T06:30:47.168Z,14.50
2017-09-04T06:33:15.444Z,14.60
2017-09-04T06:35:42.992Z,14.50
2017-09-04T06:38:10.471Z,14.60
2017-09-04T06:40:38.020Z,14.60
2017-09-04T06:43:06.300Z,14.70
2017-09-04T06:45:33.850Z,14.60
2017-09-04T06:48:01.408Z,14.60
2017-09-04T06:50:28.869Z,14.70
2017-09-04T06:52:56.339Z,14.70
2017-09-04T06:55:23.803Z,14.80
2017-09-04T06:57:51.331Z,14.90
2017-09-04T07:00:18.799Z,14.90
2017-09-04T07:02:46.259Z,15.00
2017-09-04T07:05:13.718Z,15.10
2017-09-04T07:07:41.255Z,15.10
2017-09-04T07:10:08.818Z,15.10
2017-09-04T07:12:36.382Z,15.20
2017-09-04T07:15:03.942Z,15.20
2017-09-04T07:17:31.491Z,15.30
2017-09-04T07:19:58.963Z,15.40
2017-09-04T07:22:26.432Z,15.40
2017-09-04T07:24:54.679Z,15.60
2017-09-04T07:27:22.252Z,15.60
2017-09-04T07:29:49.736Z,15.60
2017-09-04T07:32:17.202Z,15.70
2017-09-04T07:34:44.724Z,15.80
2017-09-04T07:37:12.267Z,15.90
2017-09-04T07:39:39.735Z,16.00
2017-09-04T07:42:07.285Z,16.10
2017-09-04T07:44:34.757Z,16.20
2017-09-04T07:47:02.306Z,16.20
2017-09-04T07:49:29.779Z,16.30
2017-09-04T07:51:57.239Z,16.30
2017-09-04T07:54:24.704Z,16.30
2017-09-04T07:56:52.232Z,16.30
2017-09-04T07:59:19.738Z,16.40
2017-09-04T08:01:47.247Z,16.40
2017-09-04T08:04:14.719Z,16.40
2017-09-04T08:06:42.182Z,16.50
2017-09-04T08:09:09.718Z,16.50
2017-09-04T08:11:37.194Z,16.60
2017-09-04T08:14:05.431Z,16.70
2017-09-04T08:16:33.003Z,16.70
2017-09-04T08:19:00.574Z,16.80
2017-09-04T08:21:28.040Z,16.90
2017-09-04T08:23:56.308Z,17.10
2017-09-04T08:26:23.788Z,17.00
2017-09-04T08:28:51.319Z,17.10
2017-09-04T08:31:18.792Z,17.20
2017-09-04T08:33:46.327Z,17.30
2017-09-04T08:36:13.890Z,17.40
2017-09-04T08:38:41.387Z,17.50
2017-09-04T08:41:08.899Z,17.60
2017-09-04T08:43:36.573Z,17.70
2017-09-04T08:46:04.039Z,17.70
2017-09-04T08:48:31.511Z,17.80
2017-09-04T08:50:59.052Z,17.70
2017-09-04T08:53:27.349Z,17.80
2017-09-04T08:55:54.863Z,17.80
2017-09-04T08:58:22.331Z,17.80
2017-09-04T09:00:49.895Z,17.90
2017-09-04T09:03:18.171Z,18.20
2017-09-04T09:05:45.723Z,18.20
2017-09-04T09:08:13.195Z,18.30
2017-09-04T09:10:40.736Z,18.40
2017-09-04T09:13:08.298Z,18.50
2017-09-04T09:15:35.855Z,18.60
2017-09-04T09:18:03.415Z,18.70
2017-09-04T09:20:30.980Z,18.60
2017-09-04T09:22:58.443Z,18.70
2017-09-04T09:25:26.244Z,18.70
2017-09-04T09:27:53.713Z,18.70
2017-09-04T09:30:21.177Z,18.60
2017-09-04T09:32:49.175Z,18.60
2017-09-04T09:35:16.738Z,18.60
2017-09-04T09:37:44.295Z,18.50
2017-09-04T09:40:11.851Z,18.60
2017-09-04T09:42:39.319Z,18.70
2017-09-04T09:45:06.778Z,18.90
2017-09-04T09:47:34.356Z,19.00
2017-09-04T09:50:01.819Z,19.10
2017-09-04T09:52:29.291Z,19.30
2017-09-04T09:54:56.901Z,19.40
2017-09-04T09:57:24.377Z,19.50
2017-09-04T09:59:52.627Z,19.60
2017-09-04T10:02:20.101Z,19.60
2017-09-04T10:04:47.611Z,19.50
2017-09-04T10:07:15.072Z,19.50
2017-09-04T10:09:42.591Z,19.50
2017-09-04T10:12:10.083Z,19.70
2017-09-04T10:14:37.560Z,19.80
2017-09-04T10:17:05.259Z,20.10
2017-09-04T10:19:32.728Z,20.20
2017-09-04T10:22:00.188Z,20.20
2017-09-04T10:24:27.668Z,20.30
2017-09-04T10:26:55.168Z,20.40
2017-09-04T10:29:22.639Z,20.50
2017-09-04T10:31:50.121Z,20.70
2017-09-04T10:34:17.596Z,20.70
2017-09-04T10:36:45.060Z,20.80
2017-09-04T10:39:12.535Z,21.10
2017-09-04T10:41:39.999Z,21.20
2017-09-04T10:44:07.476Z,21.30
2017-09-04T10:46:34.979Z,21.40
2017-09-04T10:49:02.451Z,21.60
2017-09-04T10:51:29.928Z,21.80
2017-09-04T10:53:57.437Z,22.00
2017-09-04T10:56:25.585Z,22.20
2017-09-04T10:58:53.119Z,22.50
2017-09-04T11:01:20.842Z,22.70
2017-09-04T11:03:48.303Z,22.70
2017-09-04T11:06:15.772Z,22.60
2017-09-04T11:08:43.405Z,22.50
2017-09-04T11:11:10.860Z,22.70
2017-09-04T11:13:38.331Z,22.70
2017-09-04T11:16:05.837Z,22.60
2017-09-04T11:18:33.302Z,22.50
2017-09-04T11:21:00.763Z,22.50
2017-09-04T11:23:29.059Z,22.70
2017-09-04T11:25:56.524Z,22.70
2017-09-04T11:28:23.997Z,22.80
2017-09-04T11:30:51.491Z,22.90
2017-09-04T11:33:18.958Z,22.80
2017-09-04T11:35:47.518Z,22.80
2017-09-04T11:38:15.004Z,22.70
2017-09-04T11:40:42.545Z,23.00
2017-09-04T11:43:10.014Z,23.40
2017-09-04T11:45:38.272Z,24.00
2017-09-04T11:48:05.909Z,24.00
2017-09-04T11:50:33.367Z,24.20
2017-09-04T11:53:00.874Z,24.10
2017-09-04T11:55:28.336Z,24.20
2017-09-04T11:57:55.804Z,24.20
2017-09-04T12:00:23.282Z,24.10
2017-09-04T12:02:50.750Z,24.10
2017-09-04T12:05:18.212Z,23.80
2017-09-04T12:07:45.784Z,23.70
2017-09-04T12:10:13.252Z,23.70
2017-09-04T12:12:40.768Z,23.70
2017-09-04T12:15:08.355Z,23.70
2017-09-04T12:17:35.841Z,23.80
2017-09-04T12:20:04.231Z,23.80
2017-09-04T12:22:31.708Z,23.70
2017-09-04T12:24:59.171Z,23.70
2017-09-04T12:27:26.636Z,23.60
2017-09-04T12:29:54.126Z,23.60
2017-09-04T12:32:21.591Z,23.60
2017-09-04T12:34:49.054Z,23.80
2017-09-04T12:37:16.535Z,23.80
2017-09-04T12:39:43.990Z,24.00
2017-09-04T12:42:11.467Z,24.00
2017-09-04T12:44:39.068Z,24.00
2017-09-04T12:47:06.623Z,23.90
2017-09-04T12:49:34.096Z,24.00
2017-09-04T12:52:01.639Z,23.90
2017-09-04T12:54:29.112Z,23.80
2017-09-04T12:56:56.608Z,23.70
2017-09-04T12:59:24.119Z,23.60
2017-09-04T13:01:51.679Z,23.40
2017-09-04T13:04:19.232Z,23.40
2017-09-04T13:06:46.800Z,23.30
2017-09-04T13:09:14.255Z,23.30
2017-09-04T13:11:57.472Z,23.40
2017-09-04T13:14:30.588Z,23.60
2017-09-04T13:17:13.871Z,23.70
2017-09-04T13:19:46.953Z,23.70
2017-09-04T13:22:20.203Z,23.70
2017-09-04T13:25:05.364Z,23.70
2017-09-04T13:27:39.103Z,23.70
2017-09-04T13:30:24.448Z,23.70
2017-09-04T13:33:06.803Z,23.70
2017-09-04T13:35:39.972Z,23.60
2017-09-04T13:38:13.172Z,23.60
2017-09-04T13:40:46.456Z,23.70
2017-09-04T13:43:19.520Z,23.80
2017-09-04T13:45:53.518Z,23.80
2017-09-04T13:48:36.784Z,23.80
2017-09-04T13:51:19.970Z,23.90
2017-09-04T13:53:53.124Z,24.00
2017-09-04T13:56:26.516Z,24.00
2017-09-04T13:59:13.694Z,23.90
2017-09-04T14:01:46.986Z,24.00
2017-09-04T14:04:23.031Z,24.30
2017-09-04T14:07:07.324Z,24.50
2017-09-04T14:09:54.496Z,24.80
2017-09-04T14:12:28.436Z,24.90
2017-09-04T14:15:13.754Z,24.90
2017-09-04T14:17:47.734Z,24.60
2017-09-04T14:20:15.233Z,24.50
2017-09-04T14:22:42.687Z,24.40
2017-09-04T14:25:10.146Z,24.30
2017-09-04T14:27:37.624Z,24.10
2017-09-04T14:30:05.091Z,24.00
2017-09-04T14:32:32.559Z,24.00
2017-09-04T14:35:00.076Z,23.80
2017-09-04T14:37:27.527Z,23.70
2017-09-04T14:39:55.014Z,23.70
2017-09-04T14:42:22.490Z,23.70
2017-09-04T14:44:50.907Z,23.70
2017-09-04T14:47:20.814Z,23.60
2017-09-04T14:49:49.491Z,23.50
2017-09-04T14:52:16.952Z,23.40
2017-09-04T14:54:44.411Z,23.40
2017-09-04T14:57:12.188Z,23.30
2017-09-04T14:59:39.700Z,23.20
2017-09-04T15:02:08.783Z,23.20
2017-09-04T15:04:36.263Z,23.10
2017-09-04T15:07:03.723Z,23.00
2017-09-04T15:09:31.181Z,23.00
2017-09-04T15:11:58.656Z,22.90
2017-09-04T15:14:26.114Z,22.90
2017-09-04T15:16:53.562Z,22.80
2017-09-04T15:19:21.027Z,22.80
2017-09-04T15:21:48.506Z,22.80
2017-09-04T15:24:15.972Z,22.80
2017-09-04T15:26:44.214Z,22.90
2017-09-04T15:29:11.673Z,22.90
2017-09-04T15:31:39.137Z,23.00
2017-09-04T15:34:06.607Z,22.80
2017-09-04T15:36:34.072Z,22.90
2017-09-04T15:39:02.303Z,22.60
2017-09-04T15:41:30.027Z,22.60
2017-09-04T15:43:57.483Z,22.50
2017-09-04T15:46:24.944Z,22.40
2017-09-04T15:48:52.671Z,22.30
2017-09-04T15:51:20.140Z,22.10
2017-09-04T15:53:48.107Z,22.00
2017-09-04T15:56:16.663Z,21.90
2017-09-04T15:58:44.123Z,21.90
2017-09-04T16:01:11.585Z,21.80
2017-09-04T16:03:39.060Z,21.80
2017-09-04T16:06:11.712Z,21.70
2017-09-04T16:08:39.193Z,21.70
2017-09-04T16:11:08.021Z,21.70
2017-09-04T16:13:50.371Z,21.70
2017-09-04T16:16:19.628Z,21.70
2017-09-04T16:18:52.812Z,21.80
2017-09-04T16:21:22.790Z,21.80
2017-09-04T16:23:52.002Z,21.70
2017-09-04T16:26:31.104Z,21.70
2017-09-04T16:29:02.299Z,21.70
2017-09-04T16:31:44.695Z,21.60
2017-09-04T16:34:14.751Z,21.60
2017-09-04T16:36:42.791Z,21.60
2017-09-04T16:39:16.089Z,21.40
2017-09-04T16:41:45.127Z,21.30
2017-09-04T16:44:13.209Z,21.20
2017-09-04T16:46:43.639Z,21.10
2017-09-04T16:49:16.972Z,21.00
2017-09-04T16:52:00.136Z,20.90
2017-09-04T16:54:29.124Z,20.90
2017-09-04T16:56:57.033Z,20.80
2017-09-04T16:59:25.364Z,20.70
2017-09-04T17:01:52.823Z,20.70
2017-09-04T17:04:20.316Z,20.70
2017-09-04T17:06:47.784Z,20.70
2017-09-04T17:09:16.036Z,20.70
2017-09-04T17:11:43.491Z,20.70
2017-09-04T17:14:11.255Z,20.70
2017-09-04T17:16:38.715Z,20.70
2017-09-04T17:19:10.600Z,20.60
2017-09-04T17:21:48.881Z,20.60
2017-09-04T17:24:19.931Z,20.60
2017-09-04T17:26:48.240Z,20.30
2017-09-04T17:29:15.856Z,20.30
2017-09-04T17:31:43.324Z,20.20
2017-09-04T17:34:10.802Z,20.10
2017-09-04T17:36:38.329Z,20.00
2017-09-04T17:39:05.916Z,20.00
2017-09-04T17:41:33.391Z,20.00
2017-09-04T17:44:00.856Z,20.00
2017-09-04T17:46:28.380Z,20.00
2017-09-04T17:48:56.644Z,19.80
2017-09-04T17:51:24.123Z,19.80
2017-09-04T17:53:51.600Z,19.80
2017-09-04T17:56:19.063Z,19.70
2017-09-04T17:58:46.525Z,19.70
2017-09-04T18:01:14.004Z,19.70
2017-09-04T18:03:41.459Z,19.60
2017-09-04T18:06:08.920Z,19.60
2017-09-04T18:08:36.683Z,19.60
2017-09-04T18:11:04.149Z,19.50
2017-09-04T18:13:31.674Z,19.50
2017-09-04T18:15:59.464Z,19.50
2017-09-04T18:18:27.291Z,19.40
2017-09-04T18:20:54.752Z,19.40
2017-09-04T18:23:22.569Z,19.30
2017-09-04T18:25:50.165Z,19.30
2017-09-04T18:28:17.625Z,19.30
2017-09-04T18:30:45.121Z,19.30
2017-09-04T18:33:12.591Z,19.30
2017-09-04T18:35:40.051Z,19.30
2017-09-04T18:38:07.665Z,19.20
2017-09-04T18:40:35.160Z,19.20
2017-09-04T18:43:02.666Z,19.10
2017-09-04T18:45:30.136Z,19.10
2017-09-04T18:47:57.609Z,19.10
2017-09-04T18:50:25.084Z,19.10
2017-09-04T18:52:52.567Z,19.10
2017-09-04T18:55:20.040Z,19.10
2017-09-04T18:57:47.500Z,19.00
2017-09-04T19:00:14.975Z,19.00
2017-09-04T19:02:42.444Z,19.00
2017-09-04T19:05:09.907Z,18.90
2017-09-04T19:07:37.415Z,18.80
2017-09-04T19:10:04.860Z,18.80
2017-09-04T19:12:32.404Z,18.70
2017-09-04T19:15:00.159Z,18.70
2017-09-04T19:17:27.624Z,18.70
2017-09-04T19:19:55.285Z,18.70
2017-09-04T19:22:23.044Z,18.70
2017-09-04T19:24:50.506Z,18.70
2017-09-04T19:27:17.980Z,18.70
2017-09-04T19:29:45.516Z,18.70
2017-09-04T19:32:12.983Z,18.70
2017-09-04T19:34:40.532Z,18.70
2017-09-04T19:37:08.024Z,18.60
2017-09-04T19:39:35.483Z,18.60
2017-09-04T19:42:02.997Z,18.60
2017-09-04T19:44:30.620Z,18.70
2017-09-04T19:46:58.079Z,18.60
2017-09-04T19:49:25.933Z,18.60
2017-09-04T19:51:53.398Z,18.50
2017-09-04T19:54:20.875Z,18.50
2017-09-04T19:56:48.434Z,18.50
2017-09-04T19:59:15.920Z,18.50
2017-09-04T20:01:43.503Z,18.60
2017-09-04T20:04:11.020Z,18.50
2017-09-04T20:06:38.496Z,18.50
2017-09-04T20:09:06.397Z,18.50
2017-09-04T20:11:33.868Z,18.40
2017-09-04T20:14:01.679Z,18.40
2017-09-04T20:16:30.470Z,18.40
2017-09-04T20:18:57.933Z,18.40
2017-09-04T20:21:25.416Z,18.40
2017-09-04T20:23:53.648Z,18.30
2017-09-04T20:26:21.216Z,18.30
2017-09-04T20:28:48.689Z,18.30
2017-09-04T20:31:16.928Z,18.20
2017-09-04T20:33:44.507Z,18.20
2017-09-04T20:36:16.221Z,18.20
2017-09-04T20:38:43.695Z,18.20
2017-09-04T20:41:11.172Z,18.20
2017-09-04T20:43:38.663Z,18.20
2017-09-04T20:46:06.900Z,18.20
2017-09-04T20:48:35.180Z,18.10
2017-09-04T20:51:02.660Z,18.10
2017-09-04T20:53:30.116Z,18.10
2017-09-04T20:55:57.652Z,18.10
2017-09-04T20:58:25.138Z,18.10
2017-09-04T21:00:52.667Z,18.00
2017-09-04T21:03:20.164Z,18.00
2017-09-04T21:05:47.647Z,18.00
2017-09-04T21:08:15.128Z,17.90
2017-09-04T21:10:42.595Z,17.90
2017-09-04T21:13:10.071Z,17.90
2017-09-04T21:15:37.615Z,17.90
2017-09-04T21:18:05.087Z,17.90
2017-09-04T21:20:33.358Z,17.90
2017-09-04T21:23:00.848Z,17.90
2017-09-04T21:25:28.310Z,17.90
2017-09-04T21:27:55.792Z,17.90
2017-09-04T21:30:23.265Z,17.90
2017-09-04T21:32:51.052Z,17.80
2017-09-04T21:35:18.523Z,17.80
2017-09-04T21:37:46.407Z,17.90
2017-09-04T21:40:13.879Z,17.80
2017-09-04T21:42:41.351Z,17.70
2017-09-04T21:45:09.601Z,17.70
2017-09-04T21:47:37.171Z,17.70
2017-09-04T21:50:04.952Z,17.70
2017-09-04T21:52:32.419Z,17.70
2017-09-04T21:54:59.887Z,17.70
2017-09-04T21:57:27.452Z,17.70
2017-09-04T21:59:54.920Z,17.80
2017-09-04T22:02:22.379Z,17.80
2017-09-04T22:04:49.916Z,17.70
2017-09-04T22:07:17.380Z,17.70
2017-09-04T22:09:44.843Z,17.70
2017-09-04T22:12:12.326Z,17.70
2017-09-04T22:14:39.798Z,17.60
2017-09-04T22:17:07.268Z,17.60
2017-09-04T22:19:34.876Z,17.60
2017-09-04T22:22:02.463Z,17.60
2017-09-04T22:24:29.928Z,17.60
2017-09-04T22:26:57.479Z,17.60
2017-09-04T22:29:24.986Z,17.60
2017-09-04T22:31:52.512Z,17.60
2017-09-04T22:34:19.982Z,17.60
2017-09-04T22:36:47.451Z,17.60
2017-09-04T22:39:14.918Z,17.50
2017-09-04T22:41:42.394Z,17.60
2017-09-04T22:44:09.861Z,17.60
2017-09-04T22:46:37.317Z,17.60
2017-09-04T22:49:04.799Z,17.60
2017-09-04T22:51:32.270Z,17.60
2017-09-04T22:53:59.740Z,17.60
2017-09-04T22:56:27.211Z,17.60
2017-09-04T22:58:55.625Z,17.60
2017-09-04T23:01:23.093Z,17.50
2017-09-04T23:03:50.567Z,17.50
2017-09-04T23:06:18.043Z,17.50
2017-09-04T23:08:46.015Z,17.50
2017-09-04T23:11:13.482Z,17.40
2017-09-04T23:13:40.951Z,17.50
2017-09-04T23:16:08.513Z,17.50
2017-09-04T23:18:36.012Z,17.50
2017-09-04T23:21:03.519Z,17.50
2017-09-04T23:23:31.076Z,17.50
2017-09-04T23:25:58.551Z,17.40
2017-09-04T23:28:26.024Z,17.40
2017-09-04T23:30:53.484Z,17.50
2017-09-04T23:33:20.955Z,17.50
2017-09-04T23:35:48.424Z,17.50
2017-09-04T23:38:15.892Z,17.50
2017-09-04T23:40:43.385Z,17.50
2017-09-04T23:43:10.932Z,17.50
2017-09-04T23:45:38.399Z,17.50
2017-09-04T23:48:05.895Z,17.50
2017-09-04T23:50:33.399Z,17.50
2017-09-04T23:53:00.865Z,17.50
2017-09-04T23:55:28.340Z,17.50
2017-09-04T23:57:55.799Z,17.50
